Scottsboro, AL (35769)

6:33 AM CST on December 19, 2014 (GMT -0600)
Scottsboro | Change Station
CLOSE
Current Station
Airport
Location: Scottsboro,
Elevation: 650 ft
Nearby Weather Stations

Elev 650 ft 34.69 °N, 86.01 °W | Updated 18 minutes ago

Partly Cloudy
Partly Cloudy
28 °F
Feels Like 28 °F
N
0
Wind Variable Wind from North

Today
High -- | Low -- °F
--% Chance of Precip.
Yesterday
High -- | Low -- °F
Precip. -- in
6:46 AM 4:36 PM
Waning Crescent, 8% visible
Pressure 30.22 in
Visibility 9.0 miles
Clouds Scattered Clouds 4400 ft
Dew Point 28 °F
Humidity 100%
Rainfall 0.00 in
Snow Depth Not available.
UV 0 out of 12
Pollen .10 out of 12
Air Quality Not available.
Flu Activity Not available.
METAR K4A6 191215Z AUTO 00000KT 9SM SCT044 M02/M02 A3022 RMK AO2

More Conditions Fewer Conditions

Pressure 30.22 in
Visibility 9.0 miles
Clouds Scattered Clouds 4400 ft
Dew Point 28 °F
Humidity 100%
Rainfall 0.00 in
Snow Depth Not available.
UV 0 out of 12
Pollen .10 out of 12
Air Quality Not available.
Flu Activity Not available.
METAR K4A6 191215Z AUTO 00000KT 9SM SCT044 M02/M02 A3022 RMK AO2

More Conditions Fewer Conditions

10-Day Weather Forecast

Almanac

Astronomy

Dec. 19, 2014 Rise Set
Actual Time
Civil Twilight
Nautical Twilight
Astronomical Twilight
Moon
Length of Visible Light
Length of Day
Tomorrow will be .
, % of the Moon is Illuminated

Today's Extremes

State Highs State Lows

Community

WunderPhotos

Upload Photos

1,778,973 photos uploaded!

WunderBlogs® & News

Nearby

Air Quality

  Air Quality AQ Index Pollutant
Not available.

Snow Depth

Station Depth Elevation

Earthquake Activity

City Distance Mag. Time & Date
Minimum magnitude displayed is 2.5.

Coastal Water Temperatures

Place Temperature

Nearby Weather Stations